createdAt,value
2018-05-27T00:00:05.554Z,22.37
2018-05-27T00:00:37.195Z,22.37
2018-05-27T00:01:08.778Z,22.36
2018-05-27T00:01:40.377Z,22.37
2018-05-27T00:02:11.981Z,22.37
2018-05-27T00:02:43.570Z,22.37
2018-05-27T00:03:15.182Z,22.37
2018-05-27T00:03:46.791Z,22.33
2018-05-27T00:04:18.401Z,22.34
2018-05-27T00:04:50.018Z,22.34
2018-05-27T00:05:21.634Z,22.35
2018-05-27T00:05:53.248Z,22.34
2018-05-27T00:06:24.849Z,22.34
2018-05-27T00:06:56.430Z,22.32
2018-05-27T00:07:28.004Z,22.35
2018-05-27T00:07:59.597Z,22.37
2018-05-27T00:08:31.196Z,22.38
2018-05-27T00:09:02.786Z,22.39
2018-05-27T00:09:34.366Z,22.38
2018-05-27T00:10:05.950Z,22.37
2018-05-27T00:10:37.604Z,22.36
2018-05-27T00:11:09.200Z,22.35
2018-05-27T00:11:40.797Z,22.35
2018-05-27T00:12:12.392Z,22.36
2018-05-27T00:12:43.975Z,22.36
2018-05-27T00:13:15.554Z,22.36
2018-05-27T00:13:47.134Z,22.36
2018-05-27T00:14:18.743Z,22.35
2018-05-27T00:14:50.326Z,22.35
2018-05-27T00:15:21.960Z,22.34
2018-05-27T00:15:53.551Z,22.34
2018-05-27T00:16:25.154Z,22.32
2018-05-27T00:16:56.749Z,22.32
2018-05-27T00:17:28.354Z,22.34
2018-05-27T00:17:59.961Z,22.34
2018-05-27T00:18:31.560Z,22.35
2018-05-27T00:19:03.152Z,22.34
2018-05-27T00:19:34.767Z,22.34
2018-05-27T00:20:06.345Z,22.31
2018-05-27T00:20:37.990Z,22.31
2018-05-27T00:21:09.560Z,22.30
2018-05-27T00:21:41.150Z,22.29
2018-05-27T00:22:12.740Z,22.29
2018-05-27T00:22:44.320Z,22.28
2018-05-27T00:23:15.923Z,22.29
2018-05-27T00:23:47.534Z,22.28
2018-05-27T00:24:19.128Z,22.28
2018-05-27T00:24:50.743Z,22.28
2018-05-27T00:25:22.378Z,22.28
2018-05-27T00:25:53.972Z,22.27
2018-05-27T00:26:25.563Z,22.26
2018-05-27T00:26:57.137Z,22.25
2018-05-27T00:27:28.729Z,22.25
2018-05-27T00:28:00.314Z,22.24
2018-05-27T00:28:31.908Z,22.24
2018-05-27T00:29:03.498Z,22.22
2018-05-27T00:29:35.094Z,22.21
2018-05-27T00:30:06.747Z,22.20
2018-05-27T00:30:38.330Z,22.19
2018-05-27T00:31:09.901Z,22.17
2018-05-27T00:31:41.476Z,22.17
2018-05-27T00:32:13.068Z,22.16
2018-05-27T00:32:44.668Z,22.16
2018-05-27T00:33:16.280Z,22.16
2018-05-27T00:33:47.871Z,22.17
2018-05-27T00:34:19.478Z,22.15
2018-05-27T00:34:51.063Z,22.16
2018-05-27T00:35:22.644Z,22.15
2018-05-27T00:35:54.265Z,22.16
2018-05-27T00:36:25.846Z,22.17
2018-05-27T00:36:57.547Z,22.16
2018-05-27T00:37:29.161Z,22.17
2018-05-27T00:38:00.760Z,22.19
2018-05-27T00:38:32.396Z,22.21
2018-05-27T00:39:03.977Z,22.22
2018-05-27T00:39:35.562Z,22.22
2018-05-27T00:40:07.170Z,22.23
2018-05-27T00:40:38.753Z,22.22
2018-05-27T00:41:10.344Z,22.22
2018-05-27T00:41:41.930Z,22.21
2018-05-27T00:42:13.534Z,22.20
2018-05-27T00:42:45.165Z,22.20
2018-05-27T00:43:16.737Z,22.19
2018-05-27T00:43:48.342Z,22.19
2018-05-27T00:44:19.929Z,22.19
2018-05-27T00:44:51.533Z,22.20
2018-05-27T00:45:23.127Z,22.19
2018-05-27T00:45:54.700Z,22.18
2018-05-27T00:46:26.306Z,22.09
2018-05-27T00:46:57.914Z,22.16
2018-05-27T00:47:29.484Z,22.14
2018-05-27T00:48:01.136Z,22.14
2018-05-27T00:48:32.732Z,22.14
2018-05-27T00:49:04.318Z,22.14
2018-05-27T00:49:35.930Z,22.13
2018-05-27T00:50:07.520Z,22.13
2018-05-27T00:50:39.102Z,22.12
2018-05-27T00:51:10.682Z,22.12
2018-05-27T00:51:42.286Z,22.12
2018-05-27T00:52:13.874Z,22.12
2018-05-27T00:52:45.455Z,22.11
2018-05-27T00:53:17.089Z,22.10
2018-05-27T00:53:48.691Z,22.10
2018-05-27T00:54:20.302Z,22.10
2018-05-27T00:54:51.885Z,22.09
2018-05-27T00:55:23.495Z,22.09
2018-05-27T00:55:55.097Z,22.09
2018-05-27T00:56:26.681Z,22.09
2018-05-27T00:56:58.262Z,22.08
2018-05-27T00:57:29.828Z,22.08
2018-05-27T00:58:01.405Z,22.07
2018-05-27T00:58:33.061Z,22.07
2018-05-27T00:59:04.633Z,22.05
2018-05-27T00:59:36.225Z,22.06
2018-05-27T01:00:07.830Z,22.07
2018-05-27T01:00:39.427Z,22.08
2018-05-27T01:01:11.036Z,22.08
2018-05-27T01:01:42.641Z,22.07
2018-05-27T01:02:14.223Z,22.08
2018-05-27T01:02:45.796Z,22.07
2018-05-27T01:03:17.376Z,22.06
2018-05-27T01:03:48.998Z,22.06
2018-05-27T01:04:20.565Z,22.07
2018-05-27T01:04:52.156Z,22.08
2018-05-27T01:05:23.752Z,22.08
2018-05-27T01:05:55.334Z,22.08
2018-05-27T01:06:26.909Z,22.08
2018-05-27T01:06:58.530Z,22.08
2018-05-27T01:07:30.120Z,22.09
2018-05-27T01:08:01.730Z,22.12
2018-05-27T01:08:33.340Z,22.11
2018-05-27T01:09:04.913Z,22.15
2018-05-27T01:09:36.557Z,22.15
2018-05-27T01:10:08.136Z,22.16
2018-05-27T01:10:39.714Z,22.16
2018-05-27T01:11:11.280Z,22.15
2018-05-27T01:11:42.882Z,22.15
2018-05-27T01:12:14.470Z,22.15
2018-05-27T01:12:46.119Z,22.16
2018-05-27T01:13:17.726Z,22.15
2018-05-27T01:13:49.321Z,22.14
2018-05-27T01:14:20.910Z,22.14
2018-05-27T01:14:52.505Z,22.13
2018-05-27T01:15:24.177Z,22.13
2018-05-27T01:15:55.776Z,22.13
2018-05-27T01:16:27.372Z,22.13
2018-05-27T01:16:58.968Z,22.12
2018-05-27T01:17:30.573Z,22.12
2018-05-27T01:18:02.187Z,22.11
2018-05-27T01:18:33.778Z,22.11
2018-05-27T01:19:05.357Z,22.11
2018-05-27T01:19:36.966Z,22.09
2018-05-27T01:20:08.582Z,22.12
2018-05-27T01:20:40.152Z,22.10
2018-05-27T01:21:11.753Z,22.09
2018-05-27T01:21:43.324Z,22.08
2018-05-27T01:22:14.930Z,22.07
2018-05-27T01:22:46.504Z,22.06
2018-05-27T01:23:18.087Z,22.04
2018-05-27T01:23:49.674Z,22.08
2018-05-27T01:24:21.287Z,22.10
2018-05-27T01:24:52.886Z,22.11
2018-05-27T01:25:24.503Z,22.11
2018-05-27T01:25:56.082Z,22.11
2018-05-27T01:26:27.712Z,22.11
2018-05-27T01:26:59.309Z,22.11
2018-05-27T01:27:30.909Z,22.09
2018-05-27T01:28:02.480Z,22.09
2018-05-27T01:28:34.094Z,22.08
2018-05-27T01:29:05.705Z,22.08
2018-05-27T01:29:37.314Z,22.08
2018-05-27T01:30:08.922Z,22.07
2018-05-27T01:30:40.549Z,22.05
2018-05-27T01:31:12.149Z,22.04
2018-05-27T01:31:43.734Z,22.04
2018-05-27T01:32:15.353Z,22.04
2018-05-27T01:32:46.954Z,22.03
2018-05-27T01:33:18.542Z,22.03
2018-05-27T01:33:50.162Z,22.02
2018-05-27T01:34:21.749Z,22.02
2018-05-27T01:34:53.353Z,22.00
2018-05-27T01:35:24.963Z,22.01
2018-05-27T01:35:56.574Z,21.99
2018-05-27T01:36:28.190Z,22.00
2018-05-27T01:36:59.850Z,22.00
2018-05-27T01:37:31.514Z,22.00
2018-05-27T01:38:03.098Z,21.99
2018-05-27T01:38:34.687Z,21.98
2018-05-27T01:39:06.285Z,21.99
2018-05-27T01:39:37.874Z,21.98
2018-05-27T01:40:09.458Z,21.99
2018-05-27T01:40:41.052Z,21.98
2018-05-27T01:41:12.638Z,21.97
2018-05-27T01:41:44.237Z,21.95
2018-05-27T01:42:15.817Z,21.97
2018-05-27T01:42:47.593Z,21.97
2018-05-27T01:43:19.176Z,21.96
2018-05-27T01:43:50.754Z,21.96
2018-05-27T01:44:22.363Z,21.95
2018-05-27T01:44:53.946Z,21.94
2018-05-27T01:45:25.540Z,21.93
2018-05-27T01:45:57.117Z,21.94
2018-05-27T01:46:28.702Z,21.94
2018-05-27T01:47:00.283Z,21.94
2018-05-27T01:47:31.872Z,21.93
2018-05-27T01:48:03.484Z,21.93
2018-05-27T01:48:35.066Z,21.93
2018-05-27T01:49:06.723Z,21.93
2018-05-27T01:49:38.305Z,21.93
2018-05-27T01:50:09.896Z,21.93
2018-05-27T01:50:41.503Z,21.94
2018-05-27T01:51:13.138Z,21.94
2018-05-27T01:51:44.742Z,21.94
2018-05-27T01:52:16.350Z,21.93
2018-05-27T01:52:47.938Z,21.92
2018-05-27T01:53:19.546Z,21.93
2018-05-27T01:53:51.141Z,21.92
2018-05-27T01:54:22.732Z,21.94
2018-05-27T01:54:54.362Z,21.96
2018-05-27T01:55:25.940Z,21.97
2018-05-27T01:55:57.574Z,21.98
2018-05-27T01:56:29.158Z,21.99
2018-05-27T01:57:00.762Z,22.00
2018-05-27T01:57:32.340Z,22.02
2018-05-27T01:58:03.945Z,22.02
2018-05-27T01:58:35.558Z,22.02
2018-05-27T01:59:07.146Z,22.01
2018-05-27T01:59:38.716Z,22.01
2018-05-27T02:00:10.284Z,22.01
2018-05-27T02:00:41.867Z,22.04
2018-05-27T02:01:13.490Z,22.04
2018-05-27T02:01:45.070Z,22.05
2018-05-27T02:02:16.654Z,22.07
2018-05-27T02:02:48.234Z,22.08
2018-05-27T02:03:19.814Z,22.09
2018-05-27T02:03:51.394Z,22.11
2018-05-27T02:04:22.982Z,22.12
2018-05-27T02:04:54.566Z,22.14
2018-05-27T02:05:26.132Z,22.17
2018-05-27T02:05:57.728Z,22.18
2018-05-27T02:06:29.358Z,22.21
2018-05-27T02:07:00.942Z,22.22
2018-05-27T02:07:32.535Z,22.24
2018-05-27T02:08:04.109Z,22.25
2018-05-27T02:08:35.713Z,22.26
2018-05-27T02:09:07.290Z,22.28
2018-05-27T02:09:38.889Z,22.30
2018-05-27T02:10:10.502Z,22.29
2018-05-27T02:10:42.090Z,22.32
2018-05-27T02:11:13.716Z,22.32
2018-05-27T02:11:45.342Z,22.34
2018-05-27T02:12:16.946Z,22.36
2018-05-27T02:12:48.558Z,22.38
2018-05-27T02:13:20.161Z,22.38
2018-05-27T02:13:51.743Z,22.40
2018-05-27T02:14:23.330Z,22.41
2018-05-27T02:14:54.900Z,22.42
2018-05-27T02:15:26.475Z,22.43
2018-05-27T02:15:58.069Z,22.43
2018-05-27T02:16:29.698Z,22.44
2018-05-27T02:17:01.282Z,22.45
2018-05-27T02:17:32.861Z,22.46
2018-05-27T02:18:04.466Z,22.47
2018-05-27T02:18:36.078Z,22.48
2018-05-27T02:19:07.689Z,22.49
2018-05-27T02:19:39.279Z,22.49
2018-05-27T02:20:10.947Z,22.50
2018-05-27T02:20:42.531Z,22.51
2018-05-27T02:21:14.172Z,22.52
2018-05-27T02:21:45.812Z,22.50
2018-05-27T02:22:17.398Z,22.52
2018-05-27T02:22:48.977Z,22.52
2018-05-27T02:23:20.577Z,22.54
2018-05-27T02:23:52.273Z,22.53
2018-05-27T02:24:23.867Z,22.53
2018-05-27T02:24:55.470Z,22.53
2018-05-27T02:25:27.078Z,22.52
2018-05-27T02:25:58.662Z,22.51
2018-05-27T02:26:30.236Z,22.51
2018-05-27T02:27:01.814Z,22.52
2018-05-27T02:27:33.394Z,22.52
2018-05-27T02:28:04.999Z,22.51
2018-05-27T02:28:36.592Z,22.54
2018-05-27T02:29:08.178Z,22.55
2018-05-27T02:29:39.760Z,22.57
2018-05-27T02:30:11.346Z,22.58
2018-05-27T02:30:42.917Z,22.60
2018-05-27T02:31:14.489Z,22.63
2018-05-27T02:31:46.060Z,22.65
2018-05-27T02:32:17.634Z,22.66
2018-05-27T02:32:49.278Z,22.67
2018-05-27T02:33:20.852Z,22.69
2018-05-27T02:33:52.449Z,22.69
2018-05-27T02:34:24.055Z,22.69
2018-05-27T02:34:55.645Z,22.69
2018-05-27T02:35:27.226Z,22.70
2018-05-27T02:35:58.807Z,22.70
2018-05-27T02:36:30.418Z,22.70
2018-05-27T02:37:02.056Z,22.70
2018-05-27T02:37:33.668Z,22.71
2018-05-27T02:38:05.244Z,22.71
2018-05-27T02:38:36.894Z,22.71
2018-05-27T02:39:08.496Z,22.72
2018-05-27T02:39:40.085Z,22.72
2018-05-27T02:40:11.676Z,22.71
2018-05-27T02:40:43.249Z,22.72
2018-05-27T02:41:14.827Z,22.71
2018-05-27T02:41:46.410Z,22.71
2018-05-27T02:42:18.018Z,22.72
2018-05-27T02:42:49.606Z,22.73
2018-05-27T02:43:21.219Z,22.74
2018-05-27T02:43:52.950Z,22.75
2018-05-27T02:44:24.534Z,22.72
2018-05-27T02:44:56.111Z,22.74
2018-05-27T02:45:27.726Z,22.73
2018-05-27T02:45:59.300Z,22.70
2018-05-27T02:46:30.904Z,22.70
2018-05-27T02:47:02.490Z,22.70
2018-05-27T02:47:34.093Z,22.69
2018-05-27T02:48:05.672Z,22.68
2018-05-27T02:48:37.257Z,22.67
2018-05-27T02:49:08.869Z,22.67
2018-05-27T02:49:40.460Z,22.66
2018-05-27T02:50:12.050Z,22.65
2018-05-27T02:50:43.649Z,22.64
2018-05-27T02:51:15.221Z,22.64
2018-05-27T02:51:46.826Z,22.64
2018-05-27T02:52:18.434Z,22.63
2018-05-27T02:52:50.041Z,22.63
2018-05-27T02:53:21.650Z,22.63
2018-05-27T02:53:53.334Z,22.63
2018-05-27T02:54:25.025Z,22.63
2018-05-27T02:54:56.620Z,22.63
2018-05-27T02:55:28.225Z,22.63
2018-05-27T02:55:59.839Z,22.63
2018-05-27T02:56:31.436Z,22.63
2018-05-27T02:57:03.022Z,22.63
2018-05-27T02:57:34.626Z,22.63
2018-05-27T02:58:06.229Z,22.62
2018-05-27T02:58:37.812Z,22.62
2018-05-27T02:59:09.385Z,22.62
2018-05-27T02:59:40.966Z,22.62
2018-05-27T03:00:12.566Z,22.61
2018-05-27T03:00:44.161Z,22.61
2018-05-27T03:01:15.766Z,22.60
2018-05-27T03:01:47.352Z,22.59
2018-05-27T03:02:18.961Z,22.60
2018-05-27T03:02:50.571Z,22.60
2018-05-27T03:03:22.166Z,22.60
2018-05-27T03:03:53.776Z,22.62
2018-05-27T03:04:25.455Z,22.62
2018-05-27T03:04:57.078Z,22.63
2018-05-27T03:05:28.665Z,22.62
2018-05-27T03:06:00.271Z,22.62
2018-05-27T03:06:31.853Z,22.64
2018-05-27T03:07:03.438Z,22.64
2018-05-27T03:07:35.041Z,22.64
2018-05-27T03:08:06.655Z,22.64
2018-05-27T03:08:38.243Z,22.63
2018-05-27T03:09:09.829Z,22.62
2018-05-27T03:09:41.434Z,22.60
2018-05-27T03:10:13.066Z,22.59
2018-05-27T03:10:44.660Z,22.58
2018-05-27T03:11:16.261Z,22.57
2018-05-27T03:11:47.855Z,22.56
2018-05-27T03:12:19.432Z,22.54
2018-05-27T03:12:51.037Z,22.54
2018-05-27T03:13:22.626Z,22.53
2018-05-27T03:13:54.201Z,22.52
2018-05-27T03:14:25.808Z,22.51
2018-05-27T03:14:57.568Z,22.51
2018-05-27T03:15:29.160Z,22.49
2018-05-27T03:16:00.760Z,22.48
2018-05-27T03:16:32.346Z,22.47
2018-05-27T03:17:03.994Z,22.46
2018-05-27T03:17:35.624Z,22.45
2018-05-27T03:18:07.202Z,22.45
2018-05-27T03:18:38.810Z,22.48
2018-05-27T03:19:10.422Z,22.58
2018-05-27T03:19:42.001Z,22.34
2018-05-27T03:20:13.596Z,22.01
2018-05-27T03:20:45.192Z,21.70
2018-05-27T03:21:16.788Z,21.42
2018-05-27T03:21:48.370Z,21.18
2018-05-27T03:22:19.941Z,21.09
2018-05-27T03:22:51.576Z,21.15
2018-05-27T03:23:23.148Z,21.26
2018-05-27T03:23:54.742Z,21.42
2018-05-27T03:24:26.337Z,21.55
2018-05-27T03:24:57.942Z,21.69
2018-05-27T03:25:29.524Z,21.82
2018-05-27T03:26:01.106Z,21.93
2018-05-27T03:26:32.711Z,22.00
2018-05-27T03:27:04.316Z,22.07
2018-05-27T03:27:35.934Z,22.12
2018-05-27T03:28:07.552Z,22.16
2018-05-27T03:28:39.121Z,22.20
2018-05-27T03:29:10.713Z,22.24
2018-05-27T03:29:42.327Z,22.27
2018-05-27T03:30:13.934Z,22.27
2018-05-27T03:30:45.522Z,22.32
2018-05-27T03:31:17.132Z,22.33
2018-05-27T03:31:48.721Z,22.35
2018-05-27T03:32:20.288Z,22.36
2018-05-27T03:32:51.943Z,22.37
2018-05-27T03:33:23.574Z,22.38
2018-05-27T03:33:55.141Z,22.39
2018-05-27T03:34:26.741Z,22.40
2018-05-27T03:34:58.330Z,22.41
2018-05-27T03:35:29.934Z,22.42
2018-05-27T03:36:01.508Z,22.43
2018-05-27T03:36:33.090Z,22.43
2018-05-27T03:37:04.694Z,22.43
2018-05-27T03:37:36.306Z,22.44
2018-05-27T03:38:07.914Z,22.44
2018-05-27T03:38:39.562Z,22.45
2018-05-27T03:39:11.165Z,22.45
2018-05-27T03:39:42.751Z,22.45
2018-05-27T03:40:14.331Z,22.46
2018-05-27T03:40:45.909Z,22.46
2018-05-27T03:41:17.508Z,22.47
2018-05-27T03:41:49.118Z,22.47
2018-05-27T03:42:20.721Z,22.47
2018-05-27T03:42:52.310Z,22.48
2018-05-27T03:43:23.953Z,22.46
2018-05-27T03:43:55.557Z,22.49
2018-05-27T03:44:27.152Z,22.50
2018-05-27T03:44:58.798Z,22.52
2018-05-27T03:45:30.386Z,22.53
2018-05-27T03:46:01.959Z,22.54
2018-05-27T03:46:33.555Z,22.54
2018-05-27T03:47:05.185Z,22.55
2018-05-27T03:47:36.766Z,22.54
2018-05-27T03:48:08.374Z,22.55
2018-05-27T03:48:39.986Z,22.56
2018-05-27T03:49:11.602Z,22.56
2018-05-27T03:49:43.234Z,22.56
2018-05-27T03:50:14.819Z,22.56
2018-05-27T03:50:46.430Z,22.56
2018-05-27T03:51:18.014Z,22.57
2018-05-27T03:51:49.621Z,22.57
2018-05-27T03:52:21.233Z,22.57
2018-05-27T03:52:52.818Z,22.57
2018-05-27T03:53:24.385Z,22.57
2018-05-27T03:53:55.977Z,22.57
2018-05-27T03:54:27.622Z,22.56
2018-05-27T03:54:59.210Z,22.58
2018-05-27T03:55:30.853Z,22.57
2018-05-27T03:56:02.501Z,22.58
2018-05-27T03:56:34.109Z,22.57
2018-05-27T03:57:05.692Z,22.58
2018-05-27T03:57:37.270Z,22.58
2018-05-27T03:58:08.877Z,22.58
2018-05-27T03:58:40.461Z,22.58
2018-05-27T03:59:12.074Z,22.58
2018-05-27T03:59:43.658Z,22.58
2018-05-27T04:00:15.296Z,22.58
2018-05-27T04:00:46.878Z,22.58
2018-05-27T04:01:18.454Z,22.59
2018-05-27T04:01:50.042Z,22.59
2018-05-27T04:02:21.636Z,22.59
2018-05-27T04:02:53.236Z,22.59
2018-05-27T04:03:24.845Z,22.60
2018-05-27T04:03:56.451Z,22.61
2018-05-27T04:04:28.057Z,22.61
2018-05-27T04:04:59.708Z,22.59
2018-05-27T04:05:31.330Z,22.61
2018-05-27T04:06:02.948Z,22.62
2018-05-27T04:06:34.524Z,22.62
2018-05-27T04:07:06.142Z,22.62
2018-05-27T04:07:37.734Z,22.63
2018-05-27T04:08:09.342Z,22.63
2018-05-27T04:08:40.950Z,22.63
2018-05-27T04:09:12.559Z,22.64
2018-05-27T04:09:44.150Z,22.64
2018-05-27T04:10:15.765Z,22.64
2018-05-27T04:10:47.393Z,22.63
2018-05-27T04:11:18.997Z,22.64
2018-05-27T04:11:50.606Z,22.64
2018-05-27T04:12:22.210Z,22.65
2018-05-27T04:12:53.805Z,22.65
2018-05-27T04:13:25.418Z,22.63
2018-05-27T04:13:57.013Z,22.65
2018-05-27T04:14:28.598Z,22.66
2018-05-27T04:15:00.187Z,22.66
2018-05-27T04:15:31.774Z,22.66
2018-05-27T04:16:03.344Z,22.67
2018-05-27T04:16:34.936Z,22.66
2018-05-27T04:17:06.509Z,22.69
2018-05-27T04:17:38.089Z,22.69
2018-05-27T04:18:09.681Z,22.70
2018-05-27T04:18:41.266Z,22.70
2018-05-27T04:19:12.872Z,22.70
2018-05-27T04:19:44.481Z,22.71
2018-05-27T04:20:16.066Z,22.70
2018-05-27T04:20:47.678Z,22.72
2018-05-27T04:21:19.326Z,22.72
2018-05-27T04:21:50.910Z,22.74
2018-05-27T04:22:22.495Z,22.74
2018-05-27T04:22:54.078Z,22.73
2018-05-27T04:23:25.681Z,22.74
2018-05-27T04:23:57.267Z,22.75
2018-05-27T04:24:28.854Z,22.76
2018-05-27T04:25:00.474Z,22.76
2018-05-27T04:25:32.064Z,22.77
2018-05-27T04:26:03.666Z,22.77
2018-05-27T04:26:35.236Z,22.77
2018-05-27T04:27:06.906Z,22.77
2018-05-27T04:27:38.494Z,22.77
2018-05-27T04:28:10.073Z,22.78
2018-05-27T04:28:41.696Z,22.79
2018-05-27T04:29:13.276Z,22.79
2018-05-27T04:29:44.858Z,22.80
2018-05-27T04:30:16.445Z,22.80
2018-05-27T04:30:48.035Z,22.80
2018-05-27T04:31:19.632Z,22.81
2018-05-27T04:31:51.227Z,22.82
2018-05-27T04:32:22.844Z,22.83
2018-05-27T04:32:54.422Z,22.83
2018-05-27T04:33:26.003Z,22.84
2018-05-27T04:33:57.650Z,22.84
2018-05-27T04:34:29.234Z,22.85
2018-05-27T04:35:00.828Z,22.84
2018-05-27T04:35:32.429Z,22.87
2018-05-27T04:36:04.011Z,22.87
2018-05-27T04:36:35.650Z,22.88
2018-05-27T04:37:07.253Z,22.90
2018-05-27T04:37:38.898Z,22.91
2018-05-27T04:38:10.506Z,22.92
2018-05-27T04:38:42.090Z,22.94
2018-05-27T04:39:13.697Z,22.96
2018-05-27T04:39:45.310Z,22.97
2018-05-27T04:40:16.922Z,22.99
2018-05-27T04:40:48.532Z,23.01
2018-05-27T04:41:20.144Z,23.01
2018-05-27T04:41:51.729Z,23.01
2018-05-27T04:42:23.301Z,23.00
2018-05-27T04:42:54.930Z,23.00
2018-05-27T04:43:26.521Z,23.00
2018-05-27T04:43:58.125Z,23.02
2018-05-27T04:44:29.730Z,23.04
2018-05-27T04:45:01.305Z,23.07
2018-05-27T04:45:32.886Z,23.10
2018-05-27T04:46:04.470Z,23.15
2018-05-27T04:46:36.045Z,23.20
2018-05-27T04:47:07.622Z,23.25
2018-05-27T04:47:39.205Z,23.30
2018-05-27T04:48:10.784Z,23.36
2018-05-27T04:48:42.385Z,23.42
2018-05-27T04:49:13.990Z,23.48
2018-05-27T04:49:45.570Z,23.54
2018-05-27T04:50:17.185Z,23.58
2018-05-27T04:50:48.794Z,23.60
2018-05-27T04:51:20.368Z,23.60
2018-05-27T04:51:51.970Z,23.60
2018-05-27T04:52:23.554Z,23.58
2018-05-27T04:52:55.133Z,23.55
2018-05-27T04:53:26.700Z,23.50
2018-05-27T04:53:58.282Z,23.48
2018-05-27T04:54:29.890Z,23.45
2018-05-27T04:55:01.488Z,23.42
2018-05-27T04:55:33.098Z,23.40
2018-05-27T04:56:04.710Z,23.38
2018-05-27T04:56:36.294Z,23.36
2018-05-27T04:57:07.897Z,23.34
2018-05-27T04:57:39.481Z,23.30
2018-05-27T04:58:11.070Z,23.31
2018-05-27T04:58:42.640Z,23.28
2018-05-27T04:59:14.232Z,23.26
2018-05-27T04:59:45.842Z,23.23
2018-05-27T05:00:17.465Z,23.22
2018-05-27T05:00:49.046Z,23.20
2018-05-27T05:01:20.640Z,23.19
2018-05-27T05:01:52.258Z,23.17
2018-05-27T05:02:23.845Z,23.14
2018-05-27T05:02:55.469Z,23.12
2018-05-27T05:03:27.059Z,23.11
2018-05-27T05:03:58.638Z,23.11
2018-05-27T05:04:30.215Z,23.11
2018-05-27T05:05:01.789Z,23.07
2018-05-27T05:05:33.371Z,23.09
2018-05-27T05:06:04.974Z,23.08
2018-05-27T05:06:36.602Z,23.08
2018-05-27T05:07:08.176Z,23.07
2018-05-27T05:07:39.744Z,23.07
2018-05-27T05:08:11.346Z,23.05
2018-05-27T05:08:43.396Z,23.04
2018-05-27T05:09:15.006Z,23.03
2018-05-27T05:09:46.620Z,23.03
2018-05-27T05:10:18.212Z,23.03
2018-05-27T05:10:49.808Z,23.02
2018-05-27T05:11:21.446Z,23.02
2018-05-27T05:11:53.084Z,23.01
2018-05-27T05:12:24.690Z,23.00
2018-05-27T05:12:56.278Z,22.99
2018-05-27T05:13:27.882Z,22.99
2018-05-27T05:13:59.465Z,22.99
2018-05-27T05:14:31.037Z,22.98
2018-05-27T05:15:02.641Z,22.98
2018-05-27T05:15:34.236Z,22.97
2018-05-27T05:16:05.828Z,22.96
2018-05-27T05:16:37.454Z,22.95
2018-05-27T05:17:09.073Z,22.94
2018-05-27T05:17:40.678Z,22.93
2018-05-27T05:18:12.288Z,22.92
2018-05-27T05:18:43.898Z,22.91
2018-05-27T05:19:15.476Z,22.90
2018-05-27T05:19:47.082Z,22.91
2018-05-27T05:20:18.668Z,22.92
2018-05-27T05:20:50.244Z,22.91
2018-05-27T05:21:21.826Z,22.89
2018-05-27T05:21:53.414Z,22.91
2018-05-27T05:22:25.047Z,22.91
2018-05-27T05:22:56.644Z,22.91
2018-05-27T05:23:28.294Z,22.91
2018-05-27T05:23:59.883Z,22.90
2018-05-27T05:24:31.465Z,22.91
2018-05-27T05:25:03.050Z,22.91
2018-05-27T05:25:34.629Z,22.92
2018-05-27T05:26:06.211Z,22.91
2018-05-27T05:26:37.818Z,22.92
2018-05-27T05:27:09.407Z,22.91
2018-05-27T05:27:40.980Z,22.83
2018-05-27T05:28:12.581Z,22.91
2018-05-27T05:28:44.228Z,22.90
2018-05-27T05:29:15.804Z,22.90
2018-05-27T05:29:47.373Z,22.90
2018-05-27T05:30:18.954Z,22.90
2018-05-27T05:30:50.562Z,22.90
2018-05-27T05:31:22.145Z,22.90
2018-05-27T05:31:53.746Z,22.90
2018-05-27T05:32:25.333Z,22.89
2018-05-27T05:32:56.938Z,22.87
2018-05-27T05:33:28.509Z,22.89
2018-05-27T05:34:00.145Z,22.89
2018-05-27T05:34:31.735Z,22.89
2018-05-27T05:35:03.318Z,22.91
2018-05-27T05:35:34.902Z,22.93
2018-05-27T05:36:06.472Z,22.94
2018-05-27T05:36:38.074Z,22.95
2018-05-27T05:37:09.648Z,22.95
2018-05-27T05:37:41.285Z,22.96
2018-05-27T05:38:12.869Z,22.96
2018-05-27T05:38:44.440Z,22.97
2018-05-27T05:39:16.027Z,22.97
2018-05-27T05:39:47.629Z,22.99
2018-05-27T05:40:19.218Z,23.01
2018-05-27T05:40:50.821Z,23.02
2018-05-27T05:41:22.392Z,23.05
2018-05-27T05:41:53.993Z,23.06
2018-05-27T05:42:25.630Z,23.05
2018-05-27T05:42:57.210Z,23.07
2018-05-27T05:43:28.810Z,23.08
2018-05-27T05:44:00.401Z,23.08
2018-05-27T05:44:32.033Z,23.08
2018-05-27T05:45:03.682Z,23.08
2018-05-27T05:45:35.257Z,23.07
2018-05-27T05:46:06.829Z,23.08
2018-05-27T05:46:38.420Z,23.05
2018-05-27T05:47:10.010Z,23.08
2018-05-27T05:47:41.613Z,23.07
2018-05-27T05:48:13.202Z,23.07
2018-05-27T05:48:44.781Z,23.07
2018-05-27T05:49:16.444Z,23.07
2018-05-27T05:49:48.040Z,23.07
2018-05-27T05:50:19.679Z,23.08
2018-05-27T05:50:51.290Z,23.07
2018-05-27T05:51:22.874Z,23.07
2018-05-27T05:51:54.458Z,23.08
2018-05-27T05:52:26.065Z,23.07
2018-05-27T05:52:57.636Z,23.08
2018-05-27T05:53:29.213Z,23.08
2018-05-27T05:54:00.825Z,23.08
2018-05-27T05:54:32.411Z,23.09
2018-05-27T05:55:03.980Z,23.09
2018-05-27T05:55:35.630Z,23.09
2018-05-27T05:56:07.214Z,23.09
2018-05-27T05:56:38.798Z,23.10
2018-05-27T05:57:10.402Z,23.09
2018-05-27T05:57:41.989Z,23.09
2018-05-27T05:58:13.589Z,23.09
2018-05-27T05:58:45.168Z,23.09
2018-05-27T05:59:16.774Z,23.10
2018-05-27T05:59:48.384Z,23.08
2018-05-27T06:00:20.040Z,23.10
2018-05-27T06:00:51.645Z,23.11
2018-05-27T06:01:23.249Z,23.11
2018-05-27T06:01:54.851Z,23.11
2018-05-27T06:02:26.434Z,23.09
2018-05-27T06:02:58.005Z,23.09
2018-05-27T06:03:29.576Z,23.09
2018-05-27T06:04:01.178Z,23.10
2018-05-27T06:04:32.777Z,23.11
2018-05-27T06:05:04.348Z,23.11
2018-05-27T06:05:35.980Z,23.11
2018-05-27T06:06:07.558Z,23.09
2018-05-27T06:06:39.143Z,23.11
2018-05-27T06:07:10.730Z,23.10
2018-05-27T06:07:42.359Z,23.11
2018-05-27T06:08:13.932Z,23.11
2018-05-27T06:08:45.518Z,23.10
2018-05-27T06:09:17.098Z,23.10
2018-05-27T06:09:48.706Z,23.11
2018-05-27T06:10:20.314Z,23.10
2018-05-27T06:10:52.180Z,23.13
2018-05-27T06:11:23.766Z,23.15
2018-05-27T06:11:55.377Z,23.16
2018-05-27T06:12:26.990Z,23.13
2018-05-27T06:12:58.575Z,23.16
2018-05-27T06:13:30.174Z,23.16
2018-05-27T06:14:01.758Z,23.17
2018-05-27T06:14:33.339Z,23.18
2018-05-27T06:15:04.932Z,23.18
2018-05-27T06:15:36.582Z,23.14
2018-05-27T06:16:08.176Z,23.16
2018-05-27T06:16:39.752Z,23.15
2018-05-27T06:17:11.344Z,23.17
2018-05-27T06:17:42.965Z,23.18
2018-05-27T06:18:14.556Z,23.19
2018-05-27T06:18:46.142Z,23.18
2018-05-27T06:19:17.730Z,23.18
2018-05-27T06:19:49.321Z,23.16
2018-05-27T06:20:20.930Z,23.15
2018-05-27T06:20:52.542Z,23.14
2018-05-27T06:21:24.128Z,23.13
2018-05-27T06:21:55.735Z,23.13
2018-05-27T06:22:27.386Z,23.12
2018-05-27T06:22:58.998Z,23.12
2018-05-27T06:23:30.664Z,23.11
2018-05-27T06:24:02.259Z,23.11
2018-05-27T06:24:33.855Z,23.11
2018-05-27T06:25:05.429Z,23.10
2018-05-27T06:25:37.000Z,23.09
2018-05-27T06:26:08.610Z,23.08
2018-05-27T06:26:40.198Z,23.08
2018-05-27T06:27:11.851Z,23.07
2018-05-27T06:27:43.448Z,23.08
2018-05-27T06:28:15.030Z,23.08
2018-05-27T06:28:46.633Z,23.09
2018-05-27T06:29:18.208Z,23.08
2018-05-27T06:29:49.785Z,23.10
2018-05-27T06:30:21.372Z,23.11
2018-05-27T06:30:52.954Z,23.20
2018-05-27T06:31:24.536Z,23.25
2018-05-27T06:31:56.150Z,23.26
2018-05-27T06:32:27.748Z,23.24
2018-05-27T06:32:59.326Z,23.18
2018-05-27T06:33:30.910Z,23.12
2018-05-27T06:34:02.514Z,23.07
2018-05-27T06:34:34.118Z,23.03
2018-05-27T06:35:05.696Z,23.00
2018-05-27T06:35:37.297Z,23.00
2018-05-27T06:36:08.900Z,23.00
2018-05-27T06:36:40.510Z,22.98
2018-05-27T06:37:12.157Z,22.97
2018-05-27T06:37:43.724Z,22.95
2018-05-27T06:38:15.326Z,22.95
2018-05-27T06:38:46.919Z,22.95
2018-05-27T06:39:18.532Z,22.93
2018-05-27T06:39:50.118Z,22.93
2018-05-27T06:40:21.722Z,22.93
2018-05-27T06:40:53.315Z,22.93
2018-05-27T06:41:24.927Z,22.91
2018-05-27T06:41:56.533Z,22.91
2018-05-27T06:42:28.148Z,22.91
2018-05-27T06:42:59.716Z,22.91
2018-05-27T06:43:31.345Z,22.91
2018-05-27T06:44:02.954Z,22.91
2018-05-27T06:44:34.582Z,22.90
2018-05-27T06:45:06.170Z,22.90
2018-05-27T06:45:37.756Z,22.89
2018-05-27T06:46:09.338Z,22.89
2018-05-27T06:46:40.918Z,22.91